sim
Sign-in with your pilot id or email,
or register
Callsign
Passwort

Schedule Details

Flight Number: OEC262
Departure: Agadir Al Massira Airport (GMAD) at Time
Arrival: Fuerteventura Airport (GCFV) at Time

Weather Information
Getting current METAR information for GMAD 211630Z 29012KT CAVOK 25/00 Q1020 NOSIG
Getting current METAR information for GCFV 211630Z 04005KT 010V080 CAVOK 20/14 Q1020

Schedule Frequency

Route Map